Time;durP1;ratioP1;P1;durP2;ratioP2;P2;SDS_P1;SDS_P2;PMS_P1;PMS_P2;Temp;Humidity;BMP_temperature;BMP_pressure;BME280_temperature;BME280_humidity;BME280_pressure;Samples;Min_cycle;Max_cycle;Signal;HPM_P1;HPM_P2
2022/10/11 00:01:45;;;;;;;62.92;51.80;;;22.50;60.10;;;;;;4837819;54;21525;-31
2022/10/11 00:06:46;;;;;;;61.85;52.35;;;22.50;60.10;;;;;;4795442;58;21011;-29
2022/10/11 00:11:47;;;;;;;64.22;52.08;;;22.50;60.00;;;;;;4809464;54;21079;-31
2022/10/11 00:16:48;;;;;;;61.92;52.38;;;22.50;60.00;;;;;;4804114;54;21074;-26
2022/10/11 00:21:48;;;;;;;57.35;50.33;;;22.50;60.00;;;;;;4811790;54;21505;-26
2022/10/11 00:26:49;;;;;;;60.42;50.72;;;22.50;60.00;;;;;;4914076;54;21574;-27
2022/10/11 00:31:50;;;;;;;57.55;50.20;;;22.50;60.00;;;;;;4811994;54;21517;-30
2022/10/11 00:36:51;;;;;;;58.28;51.10;;;22.50;60.00;;;;;;4828853;54;21098;-31
2022/10/11 00:41:51;;;;;;;55.65;49.20;;;22.50;60.10;;;;;;4800869;54;21078;-32
2022/10/11 00:47:02;;;;;;;56.97;47.53;;;22.50;60.10;;;;;;4813833;54;21032;-27
2022/10/11 00:52:18;;;;;;;55.42;48.03;;;22.50;60.00;;;;;;4877414;54;20992;-31
2022/10/11 00:57:23;;;;;;;57.27;48.57;;;22.50;60.00;;;;;;4801487;54;21024;-28
2022/10/11 01:02:25;;;;;;;56.25;48.78;;;22.50;60.00;;;;;;4821072;54;21514;-27
2022/10/11 01:07:30;;;;;;;56.15;48.17;;;22.50;60.10;;;;;;4818064;54;21983;-32
2022/10/11 01:12:31;;;;;;;51.70;45.88;;;22.50;60.10;;;;;;4876367;54;21526;-30
2022/10/11 01:18:00;;;;;;;55.30;47.15;;;22.50;60.10;;;;;;4797187;54;21097;-28
2022/10/11 01:27:33;;;;;;;50.97;45.35;;;22.50;60.00;;;;;;4848647;54;21075;-29
2022/10/11 01:34:25;;;;;;;51.20;45.63;;;22.50;60.10;;;;;;4838347;54;21247;-29
2022/10/11 01:39:44;;;;;;;50.72;45.20;;;22.40;60.00;;;;;;4796693;54;21079;-34
2022/10/11 01:44:47;;;;;;;52.95;46.33;;;22.50;60.10;;;;;;4795211;58;20987;-27
2022/10/11 01:49:57;;;;;;;50.22;44.78;;;22.50;60.30;;;;;;4807607;54;21004;-30
2022/10/11 01:55:48;;;;;;;49.60;43.97;;;22.50;60.10;;;;;;4816695;54;21174;-27
2022/10/11 02:01:09;;;;;;;49.70;43.75;;;22.50;60.10;;;;;;4802375;54;21004;-27
2022/10/11 02:07:55;;;;;;;48.13;42.90;;;22.50;60.10;;;;;;4809793;54;21059;-34
2022/10/11 02:13:04;;;;;;;51.25;45.12;;;22.50;60.10;;;;;;4836606;54;21087;-26
2022/10/11 02:18:11;;;;;;;52.17;46.20;;;22.50;60.10;;;;;;4827530;54;21012;-35
2022/10/11 02:23:30;;;;;;;49.90;44.47;;;22.50;60.10;;;;;;4796198;58;21518;-33
2022/10/11 02:28:34;;;;;;;49.83;43.35;;;22.50;60.10;;;;;;4810235;54;21052;-30
2022/10/11 02:33:40;;;;;;;47.67;42.47;;;22.50;60.10;;;;;;4795030;58;21345;-29
2022/10/11 02:38:49;;;;;;;48.10;42.75;;;22.50;60.10;;;;;;4810302;54;21047;-34
2022/10/11 02:43:59;;;;;;;47.92;42.08;;;22.50;60.10;;;;;;4839674;54;21043;-26
2022/10/11 02:49:01;;;;;;;48.33;43.13;;;22.50;60.10;;;;;;4796025;58;21087;-31
2022/10/11 02:54:02;;;;;;;47.08;41.90;;;22.50;60.10;;;;;;4818822;54;21028;-26
2022/10/11 02:59:03;;;;;;;47.62;42.45;;;22.50;60.80;;;;;;4808667;54;21004;-37
2022/10/11 03:04:04;;;;;;;48.47;43.10;;;22.50;60.10;;;;;;4916224;54;21031;-34
2022/10/11 03:09:06;;;;;;;46.70;41.63;;;22.50;60.20;;;;;;4804792;54;21008;-28
2022/10/11 03:14:07;;;;;;;47.53;42.33;;;22.50;60.20;;;;;;4801427;54;21261;-30
2022/10/11 03:19:07;;;;;;;48.13;42.10;;;22.50;60.30;;;;;;4838881;54;21008;-33
2022/10/11 03:24:08;;;;;;;47.33;42.22;;;22.50;60.40;;;;;;4878609;54;21064;-27
2022/10/11 03:29:09;;;;;;;47.50;42.47;;;22.50;60.40;;;;;;4795511;58;21027;-31
2022/10/11 03:34:10;;;;;;;47.95;42.83;;;22.50;60.50;;;;;;4810685;54;21024;-27
2022/10/11 03:39:11;;;;;;;47.62;42.20;;;22.50;60.60;;;;;;4844525;54;21099;-36
2022/10/11 03:44:12;;;;;;;46.50;41.42;;;22.50;60.70;;;;;;4806158;54;21071;-31
2022/10/11 03:49:12;;;;;;;49.47;42.08;;;22.50;60.80;;;;;;4797590;54;21032;-28
2022/10/11 03:54:13;;;;;;;47.22;41.05;;;22.50;60.80;;;;;;4806349;54;21070;-33
2022/10/11 03:59:14;;;;;;;47.97;42.72;;;22.50;60.90;;;;;;4867699;54;21673;-27
2022/10/11 04:04:15;;;;;;;49.45;44.10;;;22.50;61.60;;;;;;4816448;54;21027;-28
2022/10/11 04:09:15;;;;;;;47.35;42.20;;;22.50;61.10;;;;;;4807973;54;21008;-29
2022/10/11 04:14:16;;;;;;;49.00;43.38;;;22.50;61.20;;;;;;4820032;54;21055;-26
2022/10/11 04:19:17;;;;;;;48.80;43.58;;;22.50;61.30;;;;;;4795539;58;21054;-33
2022/10/11 04:24:18;;;;;;;47.38;42.33;;;22.50;61.50;;;;;;4822286;54;21024;-33
2022/10/11 04:29:19;;;;;;;49.50;43.60;;;22.50;61.50;;;;;;4849480;54;20996;-31
2022/10/11 04:34:19;;;;;;;46.28;41.25;;;22.40;61.40;;;;;;4810649;54;21071;-30
2022/10/11 04:39:20;;;;;;;47.90;42.70;;;22.40;61.40;;;;;;4808065;54;21529;-29
2022/10/11 04:44:21;;;;;;;48.55;43.28;;;22.40;61.40;;;;;;4799900;54;21016;-27
2022/10/11 04:49:22;;;;;;;48.70;42.70;;;22.40;61.40;;;;;;4814374;54;21028;-31
2022/10/11 04:54:23;;;;;;;49.85;43.58;;;22.40;61.40;;;;;;4807244;54;21946;-32
2022/10/11 04:59:24;;;;;;;49.50;42.72;;;22.50;61.50;;;;;;4796369;54;22010;-32
2022/10/11 05:04:25;;;;;;;49.40;42.67;;;22.50;61.50;;;;;;4795929;58;21043;-33
2022/10/11 05:09:25;;;;;;;49.17;43.87;;;22.50;61.50;;;;;;4835744;54;21003;-29
2022/10/11 05:14:26;;;;;;;47.15;42.05;;;22.40;61.40;;;;;;4850514;54;21016;-27
2022/10/11 05:19:27;;;;;;;51.88;44.17;;;22.40;61.50;;;;;;4815329;54;21028;-27
2022/10/11 05:24:28;;;;;;;51.45;45.78;;;22.40;61.40;;;;;;4816427;54;21003;-28
2022/10/11 05:29:31;;;;;;;51.35;45.08;;;22.40;61.60;;;;;;4806526;54;21004;-30
2022/10/11 05:34:32;;;;;;;49.88;44.58;;;22.40;61.40;;;;;;4813350;54;21158;-29
2022/10/11 05:39:33;;;;;;;51.00;45.47;;;22.50;61.50;;;;;;4817022;54;22093;-26
2022/10/11 05:44:34;;;;;;;50.20;44.67;;;22.50;61.50;;;;;;4813434;54;22017;-29
2022/10/11 05:49:35;;;;;;;53.40;46.90;;;22.50;61.50;;;;;;4814994;54;21040;-31
2022/10/11 05:54:35;;;;;;;54.72;48.80;;;22.40;61.50;;;;;;4808529;54;21051;-29
2022/10/11 05:59:36;;;;;;;55.55;49.47;;;22.40;61.40;;;;;;4843194;54;21462;-28
2022/10/11 06:04:37;;;;;;;52.90;47.17;;;22.40;61.40;;;;;;4827334;54;21003;-27
2022/10/11 06:09:38;;;;;;;55.55;49.50;;;22.40;61.40;;;;;;4866591;54;21063;-29
2022/10/11 06:14:39;;;;;;;58.17;51.80;;;22.50;61.60;;;;;;4806758;54;21522;-27
2022/10/11 06:19:40;;;;;;;57.40;51.08;;;22.50;61.50;;;;;;4795696;58;21067;-27
2022/10/11 06:24:41;;;;;;;59.85;52.28;;;22.50;61.50;;;;;;4795537;55;21093;-29
2022/10/11 06:29:42;;;;;;;62.30;54.40;;;22.50;61.60;;;;;;4844267;54;21083;-28
2022/10/11 06:34:43;;;;;;;61.25;54.00;;;22.50;61.60;;;;;;4826198;54;21103;-28
2022/10/11 06:39:45;;;;;;;60.75;54.08;;;22.50;61.60;;;;;;4795670;54;21493;-31
2022/10/11 06:44:46;;;;;;;64.70;56.17;;;22.50;61.70;;;;;;4801596;54;21610;-31
2022/10/11 06:49:46;;;;;;;67.50;59.42;;;22.50;61.70;;;;;;4794997;58;21079;-29
2022/10/11 06:54:47;;;;;;;69.85;58.95;;;22.50;61.70;;;;;;4795113;58;21043;-30
2022/10/11 06:59:48;;;;;;;69.55;60.00;;;22.50;62.00;;;;;;4808681;54;21099;-32
2022/10/11 07:04:49;;;;;;;71.80;59.72;;;22.60;63.00;;;;;;4795238;58;21573;-33
2022/10/11 07:09:50;;;;;;;70.85;61.55;;;22.70;62.60;;;;;;4817033;54;21176;-31
2022/10/11 07:14:51;;;;;;;75.32;64.03;;;22.70;62.70;;;;;;4813056;54;22052;-31
2022/10/11 07:19:51;;;;;;;76.65;61.65;;;22.80;63.00;;;;;;4812062;54;22198;-27
2022/10/11 07:24:52;;;;;;;78.00;65.28;;;22.80;63.10;;;;;;4855698;54;21087;-30
2022/10/11 07:29:53;;;;;;;85.50;66.25;;;22.90;63.20;;;;;;4814210;54;21068;-31
2022/10/11 07:34:55;;;;;;;78.45;65.70;;;22.90;63.40;;;;;;4813297;54;21028;-28
2022/10/11 07:39:56;;;;;;;89.20;68.50;;;23.00;63.50;;;;;;4813565;54;21534;-33
2022/10/11 07:44:56;;;;;;;74.40;64.30;;;23.00;64.20;;;;;;4810520;54;21097;-31
2022/10/11 07:49:57;;;;;;;93.68;71.53;;;23.00;63.80;;;;;;4802493;54;21080;-32
2022/10/11 07:54:58;;;;;;;85.40;69.47;;;23.00;63.80;;;;;;4795278;58;21541;-26
2022/10/11 07:59:59;;;;;;;93.37;73.65;;;23.10;64.00;;;;;;4799958;54;20999;-31
2022/10/11 08:05:00;;;;;;;87.18;72.50;;;23.10;64.00;;;;;;4820649;54;21032;-31
2022/10/11 08:10:00;;;;;;;89.43;73.47;;;23.10;64.20;;;;;;4795680;55;21043;-31
2022/10/11 08:15:02;;;;;;;91.05;74.35;;;23.20;64.10;;;;;;4813052;54;21099;-32
2022/10/11 08:20:03;;;;;;;96.55;76.10;;;23.20;64.20;;;;;;4796418;58;20996;-28
2022/10/11 08:25:06;;;;;;;97.50;77.75;;;23.20;64.50;;;;;;4820591;54;21028;-28
2022/10/11 08:30:09;;;;;;;102.00;83.28;;;23.20;64.40;;;;;;4827862;54;21019;-28
2022/10/11 08:35:09;;;;;;;105.22;80.00;;;23.20;64.30;;;;;;4797573;54;21065;-30
2022/10/11 08:40:16;;;;;;;105.40;83.80;;;23.30;64.30;;;;;;4805455;54;21061;-28
2022/10/11 08:45:42;;;;;;;108.07;85.77;;;23.20;64.10;;;;;;4794299;54;21513;-27
2022/10/11 08:50:48;;;;;;;104.55;80.80;;;23.20;63.90;;;;;;4801099;54;21120;-29
2022/10/11 08:55:51;;;;;;;112.03;86.47;;;23.20;63.80;;;;;;4826966;54;21091;-28
2022/10/11 09:00:55;;;;;;;109.80;85.40;;;23.20;63.70;;;;;;4813662;54;21762;-29
2022/10/11 09:09:46;;;;;;;111.75;89.20;;;23.10;63.50;;;;;;4797554;54;21080;-28
2022/10/11 09:15:16;;;;;;;113.07;91.22;;;23.20;63.80;;;;;;4801235;54;21048;-31
2022/10/11 09:21:11;;;;;;;119.20;91.75;;;23.20;64.00;;;;;;4816533;54;21031;-29
2022/10/11 09:26:38;;;;;;;116.95;90.68;;;23.20;64.10;;;;;;4806594;54;21041;-29
2022/10/11 09:31:45;;;;;;;115.62;94.80;;;23.30;64.10;;;;;;4856755;54;21004;-31
2022/10/11 09:37:23;;;;;;;157.73;92.87;;;23.30;64.20;;;;;;4799230;54;21120;-28
2022/10/11 09:42:24;;;;;;;131.18;94.78;;;23.40;65.20;;;;;;4840056;54;20992;-34
2022/10/11 09:47:29;;;;;;;137.32;95.15;;;23.40;65.20;;;;;;4814478;54;21004;-32
2022/10/11 09:52:30;;;;;;;140.95;101.10;;;23.40;65.20;;;;;;4816797;54;21513;-31
2022/10/11 09:57:36;;;;;;;150.00;103.53;;;23.40;65.20;;;;;;4814712;54;21051;-30
2022/10/11 10:02:49;;;;;;;147.80;107.43;;;23.50;65.30;;;;;;4799170;54;20992;-30
2022/10/11 10:08:21;;;;;;;140.50;104.03;;;23.50;65.30;;;;;;4796724;54;21461;-33
2022/10/11 10:13:32;;;;;;;141.50;106.75;;;23.60;65.30;;;;;;4812760;54;21486;-30
2022/10/11 10:19:04;;;;;;;149.68;107.65;;;23.60;65.30;;;;;;4812194;54;21040;-31
2022/10/11 10:25:06;;;;;;;144.52;107.43;;;23.60;65.30;;;;;;4802922;54;20992;-32
2022/10/11 10:30:14;;;;;;;153.85;110.12;;;23.70;65.40;;;;;;4799304;54;21450;-29
2022/10/11 10:35:28;;;;;;;136.95;104.18;;;23.70;65.10;;;;;;4803811;54;21012;-32
2022/10/11 10:40:46;;;;;;;142.20;107.30;;;23.70;65.10;;;;;;4821827;54;21071;-27
2022/10/11 10:46:56;;;;;;;145.55;108.15;;;23.70;65.10;;;;;;4867391;54;20986;-35
2022/10/11 10:52:24;;;;;;;141.15;105.72;;;23.70;65.90;;;;;;4796493;54;21028;-27
2022/10/11 11:00:32;;;;;;;149.98;104.22;;;23.70;65.20;;;;;;4793933;54;21052;-28
2022/10/11 11:05:58;;;;;;;136.25;105.93;;;23.70;65.20;;;;;;4823260;54;21509;-30
2022/10/11 11:14:40;;;;;;;141.00;108.18;;;23.70;65.30;;;;;;4795667;58;21995;-29
2022/10/11 11:22:28;;;;;;;144.75;110.78;;;23.70;64.90;;;;;;4824694;54;21498;-31
2022/10/11 11:30:18;;;;;;;146.05;111.90;;;23.50;64.50;;;;;;4795341;58;21495;-29
2022/10/11 11:35:42;;;;;;;141.20;109.35;;;23.50;64.20;;;;;;4811786;54;21047;-27
2022/10/11 11:40:48;;;;;;;141.18;107.63;;;23.50;64.10;;;;;;4810260;54;21012;-27
2022/10/11 11:46:05;;;;;;;142.62;108.72;;;23.50;64.10;;;;;;4833783;54;21059;-28
2022/10/11 11:51:36;;;;;;;134.02;106.87;;;23.40;63.80;;;;;;4804873;54;21454;-28
2022/10/11 12:03:38;;;;;;;138.50;108.85;;;23.40;63.80;;;;;;4795274;58;21071;-29
2022/10/11 12:08:48;;;;;;;139.70;105.80;;;23.40;63.80;;;;;;4797872;54;21051;-32
2022/10/11 12:13:51;;;;;;;134.27;104.30;;;23.40;64.00;;;;;;4801348;54;21052;-35
2022/10/11 12:19:00;;;;;;;134.18;105.37;;;23.40;64.10;;;;;;4814318;54;21076;-32
2022/10/11 12:24:23;;;;;;;127.20;101.62;;;23.40;64.10;;;;;;4817609;54;21512;-34
2022/10/11 12:29:48;;;;;;;128.40;99.57;;;23.40;63.90;;;;;;4852724;54;21143;-32
2022/10/11 12:34:49;;;;;;;122.25;97.62;;;23.40;63.90;;;;;;4831884;54;21079;-35
2022/10/11 12:39:55;;;;;;;121.95;93.95;;;23.40;63.90;;;;;;4882866;54;21084;-34
2022/10/11 12:45:28;;;;;;;116.50;96.97;;;23.40;63.90;;;;;;4796759;54;21011;-36
2022/10/11 12:50:50;;;;;;;130.82;97.37;;;23.40;63.80;;;;;;4823475;54;20996;-34
2022/10/11 12:56:25;;;;;;;118.13;93.80;;;23.40;63.80;;;;;;4804409;54;21994;-31
2022/10/11 13:01:32;;;;;;;119.28;94.62;;;23.50;63.70;;;;;;4810777;54;20992;-34
2022/10/11 13:06:45;;;;;;;111.12;90.50;;;23.40;63.60;;;;;;4852911;54;20992;-36
2022/10/11 13:11:53;;;;;;;111.35;91.70;;;23.50;63.60;;;;;;4803677;54;21007;-31
2022/10/11 13:17:37;;;;;;;112.82;92.05;;;23.50;63.50;;;;;;4820359;54;21000;-35
2022/10/11 13:22:39;;;;;;;109.55;89.07;;;23.50;63.50;;;;;;4830412;54;21044;-34
2022/10/11 13:27:40;;;;;;;114.30;91.18;;;23.50;63.50;;;;;;4839626;54;21545;-34
2022/10/11 13:32:42;;;;;;;111.80;90.75;;;23.50;63.40;;;;;;4833426;54;21060;-35
2022/10/11 13:37:47;;;;;;;111.75;89.57;;;23.50;69.10;;;;;;4826832;54;21067;-40
2022/10/11 13:42:50;;;;;;;106.97;86.82;;;23.60;65.70;;;;;;4807758;54;21051;-36
2022/10/11 13:47:53;;;;;;;108.70;84.35;;;23.60;66.50;;;;;;4797508;54;20995;-35
2022/10/11 13:53:24;;;;;;;104.97;86.97;;;23.70;66.50;;;;;;4822037;54;21054;-35
2022/10/11 13:58:39;;;;;;;107.80;85.53;;;23.60;66.00;;;;;;4817124;54;21016;-26
2022/10/11 14:03:47;;;;;;;105.30;86.75;;;23.60;65.50;;;;;;4846942;54;21212;-30
2022/10/11 14:08:54;;;;;;;111.37;91.78;;;23.60;65.10;;;;;;4798210;54;21624;-31
2022/10/11 14:13:56;;;;;;;110.12;90.65;;;23.50;65.00;;;;;;4795619;54;21095;-33
2022/10/11 14:19:09;;;;;;;108.37;91.20;;;23.50;64.80;;;;;;4962943;54;21538;-36
2022/10/11 14:24:10;;;;;;;103.55;86.65;;;23.50;64.70;;;;;;4831888;54;21688;-30
2022/10/11 14:29:26;;;;;;;104.65;86.87;;;23.40;64.80;;;;;;4795010;58;21220;-31
2022/10/11 14:34:30;;;;;;;99.75;83.00;;;23.40;64.50;;;;;;4806789;54;21103;-34
2022/10/11 14:39:32;;;;;;;101.10;83.50;;;23.30;64.80;;;;;;4826733;54;21083;-30
2022/10/11 14:44:33;;;;;;;100.62;84.78;;;23.30;64.80;;;;;;4795429;54;21027;-35
2022/10/11 14:49:36;;;;;;;101.70;83.55;;;23.30;64.80;;;;;;4795592;55;21063;-32
2022/10/11 14:54:37;;;;;;;99.85;83.97;;;23.30;64.80;;;;;;4808560;54;21087;-31
2022/10/11 14:59:38;;;;;;;99.15;85.10;;;23.30;64.70;;;;;;4862373;54;21008;-34
2022/10/11 15:04:39;;;;;;;102.93;84.00;;;23.40;64.80;;;;;;4798214;54;20983;-31
2022/10/11 15:09:40;;;;;;;99.78;84.15;;;23.20;64.70;;;;;;4795174;58;21000;-32
2022/10/11 15:14:40;;;;;;;98.20;82.45;;;23.20;64.70;;;;;;4798545;54;21490;-32
2022/10/11 15:19:41;;;;;;;91.32;79.62;;;23.20;64.70;;;;;;4826833;54;21020;-33
2022/10/11 15:24:42;;;;;;;93.43;79.78;;;23.20;64.60;;;;;;4799665;54;21008;-32
2022/10/11 15:29:43;;;;;;;93.12;79.12;;;23.20;64.50;;;;;;4795802;54;21119;-34
2022/10/11 15:34:44;;;;;;;99.68;83.70;;;23.20;64.50;;;;;;4806834;54;21462;-33
2022/10/11 15:39:44;;;;;;;94.05;80.38;;;23.20;64.50;;;;;;4794503;55;21052;-28
2022/10/11 15:44:45;;;;;;;92.50;80.93;;;23.20;65.10;;;;;;4800770;54;20999;-35
2022/10/11 15:49:46;;;;;;;93.45;79.15;;;23.10;64.30;;;;;;4875176;54;21076;-28
2022/10/11 15:54:47;;;;;;;88.57;77.70;;;23.20;64.30;;;;;;4891115;54;21059;-31
2022/10/11 15:59:48;;;;;;;86.78;76.78;;;23.10;64.30;;;;;;4834106;54;21569;-30
2022/10/11 16:04:49;;;;;;;88.15;77.22;;;23.20;64.40;;;;;;4803418;54;21490;-32
2022/10/11 16:09:49;;;;;;;90.20;76.80;;;23.10;64.30;;;;;;4802105;54;21044;-34
2022/10/11 16:14:50;;;;;;;87.93;75.75;;;23.10;64.20;;;;;;4803325;54;21043;-33
2022/10/11 16:19:51;;;;;;;87.88;77.47;;;23.10;64.20;;;;;;4796328;58;21078;-29
2022/10/11 16:24:52;;;;;;;86.12;73.62;;;23.10;64.20;;;;;;4800661;54;21005;-31
2022/10/11 16:29:53;;;;;;;88.28;75.25;;;23.10;64.20;;;;;;4886433;54;21036;-27
2022/10/11 16:34:54;;;;;;;88.00;75.28;;;23.10;64.10;;;;;;4832129;54;20995;-27
2022/10/11 16:39:55;;;;;;;81.80;71.82;;;23.10;64.20;;;;;;4794115;58;21036;-33
2022/10/11 16:44:55;;;;;;;84.53;74.25;;;23.00;64.10;;;;;;4834748;54;21712;-36
2022/10/11 16:49:58;;;;;;;85.72;74.60;;;23.00;64.10;;;;;;4795288;58;21047;-37
2022/10/11 16:55:01;;;;;;;84.78;72.05;;;23.00;64.10;;;;;;4815631;54;21479;-33
2022/10/11 17:00:05;;;;;;;82.07;72.12;;;22.80;64.00;;;;;;4795133;58;21016;-29
2022/10/11 17:05:06;;;;;;;86.47;72.65;;;23.00;64.00;;;;;;4846124;54;21063;-32
2022/10/11 17:10:07;;;;;;;86.18;72.78;;;23.10;64.10;;;;;;4797153;54;21019;-31
2022/10/11 17:15:12;;;;;;;81.75;72.53;;;23.00;64.00;;;;;;4796329;54;21052;-29
2022/10/11 17:20:13;;;;;;;80.72;70.45;;;23.00;64.00;;;;;;4821991;54;21546;-27
2022/10/11 17:25:14;;;;;;;81.20;70.93;;;23.00;64.00;;;;;;4812871;54;21004;-30
2022/10/11 17:30:15;;;;;;;80.30;70.35;;;23.00;64.00;;;;;;4828312;54;21063;-30
2022/10/11 17:35:17;;;;;;;81.40;71.82;;;23.00;64.00;;;;;;4797159;54;21004;-31
2022/10/11 17:40:17;;;;;;;78.20;69.55;;;23.00;63.90;;;;;;4816243;54;21020;-27
2022/10/11 17:45:18;;;;;;;78.87;70.28;;;23.00;63.90;;;;;;4819876;54;21552;-28
2022/10/11 17:50:22;;;;;;;81.87;70.37;;;23.00;63.90;;;;;;4809481;54;21043;-31
2022/10/11 17:55:23;;;;;;;78.57;69.18;;;23.00;63.90;;;;;;4794223;58;21095;-27
2022/10/11 18:00:23;;;;;;;81.80;70.05;;;23.00;63.90;;;;;;4804538;54;21091;-27
2022/10/11 18:05:24;;;;;;;78.05;69.28;;;23.00;63.90;;;;;;4806569;54;21040;-32
2022/10/11 18:10:26;;;;;;;80.57;69.72;;;23.00;63.80;;;;;;4794768;58;21008;-28
2022/10/11 18:15:31;;;;;;;78.87;69.72;;;23.00;64.10;;;;;;4815944;54;21550;-30
2022/10/11 18:20:32;;;;;;;77.40;67.72;;;23.00;63.90;;;;;;4824720;54;20968;-34
2022/10/11 18:25:33;;;;;;;79.80;69.57;;;23.00;63.80;;;;;;4863094;54;21044;-27
2022/10/11 18:30:39;;;;;;;78.18;67.20;;;23.00;63.80;;;;;;4810084;54;21004;-26
2022/10/11 18:35:41;;;;;;;79.50;68.80;;;23.00;63.80;;;;;;4828070;54;21092;-36
2022/10/11 18:40:41;;;;;;;79.25;68.03;;;23.00;63.80;;;;;;4799529;54;21056;-29
2022/10/11 18:45:42;;;;;;;82.30;70.87;;;23.00;63.70;;;;;;4825190;54;21019;-28
2022/10/11 18:50:43;;;;;;;80.72;70.47;;;23.00;63.70;;;;;;4801306;54;21482;-30
2022/10/11 18:55:44;;;;;;;80.30;71.15;;;23.00;63.70;;;;;;4808378;54;21028;-31
2022/10/11 19:00:45;;;;;;;78.70;67.35;;;23.00;63.80;;;;;;4795003;54;21008;-27
2022/10/11 19:05:45;;;;;;;81.53;69.22;;;23.00;63.80;;;;;;4796058;54;21016;-34
2022/10/11 19:10:46;;;;;;;76.57;68.18;;;23.00;63.70;;;;;;4805760;54;21004;-28
2022/10/11 19:15:47;;;;;;;76.37;67.60;;;23.00;63.70;;;;;;4798366;54;21027;-34
2022/10/11 19:20:48;;;;;;;77.93;68.80;;;23.00;63.80;;;;;;4808319;54;21027;-30
2022/10/11 19:25:48;;;;;;;76.25;67.45;;;23.00;63.70;;;;;;4795116;58;21000;-30
2022/10/11 19:30:49;;;;;;;76.35;67.80;;;23.00;63.70;;;;;;4832573;54;21035;-31
2022/10/11 19:35:54;;;;;;;76.20;67.82;;;23.10;63.70;;;;;;4794444;54;22018;-31
2022/10/11 19:40:55;;;;;;;78.70;67.72;;;23.00;63.70;;;;;;4797807;54;20968;-28
2022/10/11 19:46:09;;;;;;;80.90;69.28;;;23.00;63.70;;;;;;4797978;54;21055;-33
2022/10/11 19:51:19;;;;;;;79.47;68.37;;;23.10;63.70;;;;;;4854047;54;21478;-34
2022/10/11 19:56:20;;;;;;;77.60;69.12;;;23.00;63.70;;;;;;4821095;54;21000;-27
2022/10/11 20:01:25;;;;;;;80.22;69.62;;;23.00;63.60;;;;;;4814604;54;21063;-30
2022/10/11 20:06:27;;;;;;;76.57;68.15;;;23.00;64.20;;;;;;4840554;54;21458;-32
2022/10/11 20:11:28;;;;;;;76.35;66.95;;;22.90;63.50;;;;;;4824666;54;21083;-31
2022/10/11 20:16:29;;;;;;;77.03;68.07;;;22.90;63.50;;;;;;4823263;54;21051;-34
2022/10/11 20:21:30;;;;;;;79.30;69.12;;;22.90;63.50;;;;;;4794890;58;21087;-31
2022/10/11 20:26:32;;;;;;;78.25;67.93;;;22.90;63.40;;;;;;4812474;54;21079;-36
2022/10/11 20:31:36;;;;;;;72.72;64.75;;;22.90;63.40;;;;;;4832188;54;21482;-32
2022/10/11 20:36:38;;;;;;;74.32;66.15;;;22.90;63.40;;;;;;4840705;54;22166;-32
2022/10/11 20:41:38;;;;;;;75.75;66.95;;;22.90;63.40;;;;;;4804708;54;21023;-27
2022/10/11 20:46:39;;;;;;;76.57;67.22;;;22.90;63.40;;;;;;4799161;54;21068;-30
2022/10/11 20:51:41;;;;;;;75.68;66.87;;;23.00;64.10;;;;;;4804796;54;21000;-33
2022/10/11 20:56:42;;;;;;;78.10;66.10;;;22.90;63.40;;;;;;4803354;54;21092;-36
2022/10/11 21:01:43;;;;;;;74.30;65.95;;;22.90;63.30;;;;;;4803941;54;21119;-29
2022/10/11 21:06:44;;;;;;;75.80;65.55;;;22.80;63.20;;;;;;4806316;54;21020;-31
2022/10/11 21:11:45;;;;;;;74.68;65.85;;;22.90;63.40;;;;;;4839277;54;21125;-36
2022/10/11 21:16:46;;;;;;;73.93;65.78;;;22.90;63.20;;;;;;4798773;54;21086;-29
2022/10/11 21:21:46;;;;;;;76.07;66.07;;;22.90;63.30;;;;;;4795486;58;20976;-33
2022/10/11 21:26:47;;;;;;;74.75;66.47;;;22.90;63.20;;;;;;4804583;54;20975;-31
2022/10/11 21:31:48;;;;;;;69.43;61.85;;;22.90;63.20;;;;;;4833546;54;21015;-31
2022/10/11 21:36:49;;;;;;;74.03;64.82;;;22.90;63.20;;;;;;4805977;54;21510;-35
2022/10/11 21:41:50;;;;;;;71.62;61.63;;;22.90;63.30;;;;;;4795236;58;21024;-34
2022/10/11 21:46:51;;;;;;;73.03;64.60;;;22.90;63.20;;;;;;4808117;54;21052;-25
2022/10/11 21:51:51;;;;;;;70.15;60.00;;;22.90;63.20;;;;;;4817941;54;21565;-30
2022/10/11 21:56:52;;;;;;;70.90;63.20;;;22.90;63.80;;;;;;4794751;58;21130;-37
2022/10/11 22:01:53;;;;;;;71.15;63.13;;;22.90;63.20;;;;;;4803724;54;21007;-27
2022/10/11 22:06:54;;;;;;;69.82;62.05;;;22.90;63.20;;;;;;4810169;54;21011;-34
2022/10/11 22:11:56;;;;;;;73.97;64.45;;;22.90;63.20;;;;;;4807635;54;21506;-28
2022/10/11 22:16:57;;;;;;;69.12;61.25;;;22.90;63.20;;;;;;4794523;58;21494;-29
2022/10/11 22:21:57;;;;;;;70.03;61.85;;;22.90;63.10;;;;;;4809723;54;21020;-36
2022/10/11 22:26:58;;;;;;;70.93;63.15;;;22.90;63.10;;;;;;4829879;54;21032;-36
2022/10/11 22:32:02;;;;;;;71.57;62.08;;;22.90;63.10;;;;;;4795245;58;21051;-35
2022/10/11 22:37:03;;;;;;;70.18;62.22;;;22.90;63.20;;;;;;4820982;54;21071;-35
2022/10/11 22:42:03;;;;;;;67.62;60.25;;;22.90;63.10;;;;;;4837592;54;21573;-31
2022/10/11 22:47:04;;;;;;;67.50;60.12;;;22.90;63.10;;;;;;4801279;54;21015;-31
2022/10/11 22:52:05;;;;;;;67.62;60.03;;;22.90;63.20;;;;;;4834576;54;21102;-33
2022/10/11 22:57:06;;;;;;;65.85;58.75;;;22.90;63.10;;;;;;4794540;58;21004;-28
2022/10/11 23:02:07;;;;;;;65.10;58.05;;;22.90;63.20;;;;;;4800410;54;21063;-31
2022/10/11 23:07:07;;;;;;;65.68;58.53;;;22.90;63.10;;;;;;4809106;54;21000;-30
2022/10/11 23:12:08;;;;;;;68.18;60.78;;;22.80;63.00;;;;;;4796202;54;21517;-29
2022/10/11 23:17:09;;;;;;;65.50;58.40;;;22.90;63.10;;;;;;4809673;54;21509;-32
2022/10/11 23:22:10;;;;;;;66.10;58.87;;;22.80;63.00;;;;;;4811471;54;21039;-35
2022/10/11 23:27:11;;;;;;;63.60;56.78;;;22.80;63.10;;;;;;4796246;58;21020;-34
2022/10/11 23:32:11;;;;;;;66.62;58.72;;;22.80;63.00;;;;;;4828407;54;21031;-31
2022/10/11 23:37:12;;;;;;;64.80;57.70;;;22.80;63.00;;;;;;4794690;58;21570;-33
2022/10/11 23:42:13;;;;;;;65.18;58.15;;;22.90;63.00;;;;;;4795364;58;21016;-29
2022/10/11 23:47:14;;;;;;;66.22;58.85;;;22.90;63.00;;;;;;4795614;55;21513;-33
2022/10/11 23:52:14;;;;;;;62.65;55.75;;;22.80;63.00;;;;;;4795234;58;21478;-33
2022/10/11 23:57:15;;;;;;;63.75;56.83;;;22.80;62.90;;;;;;4815247;54;21051;-30
